Time;durP1;ratioP1;P1;durP2;ratioP2;P2;SDS_P1;SDS_P2;PMS_P1;PMS_P2;Temp;Humidity;BMP_temperature;BMP_pressure;BME280_temperature;BME280_humidity;BME280_pressure;Samples;Min_cycle;Max_cycle;Signal;HPM_P1;HPM_P2
2021/12/12 00:01:44;;;;;;;34.00;8.93;;;;;;;-145.18;100.00;47566.84;5070410;28;20262;-69
2021/12/12 00:04:15;;;;;;;30.53;11.43;;;;;;;-145.18;100.00;47576.63;5060963;28;20750;-69
2021/12/12 00:06:53;;;;;;;30.33;10.10;;;;;;;-145.18;100.00;47572.72;5069693;28;20273;-68
2021/12/12 00:09:47;;;;;;;34.53;9.53;;;;;;;-145.18;100.00;47559.03;5070110;28;20261;-69
2021/12/12 00:12:18;;;;;;;23.80;9.57;;;;;;;-145.18;100.00;47566.84;5065625;28;20754;-68
2021/12/12 00:14:44;;;;;;;32.83;9.27;;;;;;;-145.18;100.00;47547.31;5069609;28;20337;-68
2021/12/12 00:17:11;;;;;;;23.60;8.97;;;;;;;-145.18;100.00;47559.03;5069924;28;20675;-69
2021/12/12 00:19:37;;;;;;;24.70;9.33;;;;;;;-145.18;100.00;47555.13;5069372;28;20323;-69
2021/12/12 00:22:09;;;;;;;28.97;10.23;;;;;;;-145.18;100.00;47545.34;5069644;28;20274;-69
2021/12/12 00:24:36;;;;;;;27.77;9.13;;;;;;;-145.18;100.00;47570.75;5068909;28;20281;-68
2021/12/12 00:27:02;;;;;;;32.00;10.03;;;;;;;-145.18;100.00;47574.66;5069860;28;20319;-68
2021/12/12 00:29:29;;;;;;;29.60;9.50;;;;;;;-145.18;100.00;47553.16;5069559;28;20282;-68
2021/12/12 00:31:59;;;;;;;38.60;9.70;;;;;;;-145.18;100.00;47551.22;5069358;28;20036;-68
2021/12/12 00:34:31;;;;;;;31.13;10.13;;;;;;;-145.18;100.00;47543.41;5069236;28;20269;-69
2021/12/12 00:36:57;;;;;;;29.20;9.23;;;;;;;-145.18;100.00;47555.13;5069447;28;20634;-69
2021/12/12 00:39:27;;;;;;;27.53;9.07;;;;;;;-145.18;100.00;47551.22;5070073;28;20269;-68
2021/12/12 00:42:06;;;;;;;28.73;8.93;;;;;;;-145.18;100.00;47562.94;5069527;28;20045;-68
2021/12/12 00:44:32;;;;;;;28.60;9.30;;;;;;;-145.18;100.00;47562.94;5069450;28;20274;-68
2021/12/12 00:47:01;;;;;;;26.00;9.07;;;;;;;-145.18;100.00;47547.31;5069171;28;20270;-68
2021/12/12 00:49:29;;;;;;;22.23;8.77;;;;;;;-145.18;100.00;47570.75;5069467;28;20048;-68
2021/12/12 00:51:55;;;;;;;35.03;9.50;;;;;;;-145.18;100.00;47568.81;5069140;28;20273;-68
2021/12/12 00:54:22;;;;;;;32.20;9.73;;;;;;;-145.18;100.00;47584.44;5068956;28;20277;-68
2021/12/12 00:56:48;;;;;;;25.30;8.77;;;;;;;-145.18;100.00;47576.63;5069059;28;20615;-68
2021/12/12 00:59:15;;;;;;;26.37;8.63;;;;;;;-145.18;100.00;47559.03;5068845;28;20274;-69
2021/12/12 01:01:46;;;;;;;25.17;8.50;;;;;;;-145.18;100.00;47576.63;5069519;28;20273;-68
2021/12/12 01:04:16;;;;;;;24.93;8.87;;;;;;;-145.18;100.00;47559.03;5069114;28;20262;-68
2021/12/12 01:06:44;;;;;;;24.63;8.30;;;;;;;-145.18;100.00;47564.91;5068684;28;20265;-68
2021/12/12 01:09:14;;;;;;;26.67;7.83;;;;;;;-145.18;100.00;47555.13;5068927;28;20261;-68
2021/12/12 01:11:46;;;;;;;24.40;8.73;;;;;;;-145.18;100.00;47553.16;5068637;28;20261;-68
2021/12/12 01:14:18;;;;;;;21.20;8.13;;;;;;;-145.18;100.00;47566.84;5068840;28;20266;-68
2021/12/12 01:17:00;;;;;;;28.23;8.67;;;;;;;-145.18;100.00;47557.06;5068378;28;20261;-68
2021/12/12 01:19:30;;;;;;;26.90;7.63;;;;;;;-145.18;100.00;47574.66;5068628;28;20693;-68
2021/12/12 01:22:06;;;;;;;32.77;8.70;;;;;;;-145.18;100.00;47566.84;5068539;28;20270;-68
2021/12/12 01:24:39;;;;;;;25.27;7.63;;;;;;;-145.18;100.00;47553.16;5068687;28;20664;-68
2021/12/12 01:27:06;;;;;;;30.70;7.67;;;;;;;-145.18;100.00;47559.03;5068798;28;20268;-68
2021/12/12 01:29:32;;;;;;;24.33;8.13;;;;;;;-145.18;100.00;47559.03;5068309;28;20276;-68
2021/12/12 01:32:02;;;;;;;25.53;7.03;;;;;;;-145.18;100.00;47562.94;5068192;28;20273;-68
2021/12/12 01:34:30;;;;;;;17.57;7.60;;;;;;;-145.18;100.00;47539.50;5067219;28;20764;-68
2021/12/12 01:37:10;;;;;;;31.13;7.33;;;;;;;-145.18;100.00;47557.06;5067928;28;20278;-69
2021/12/12 01:39:40;;;;;;;27.50;7.17;;;;;;;-145.18;100.00;47533.63;5067917;28;20280;-68
2021/12/12 01:42:15;;;;;;;26.40;9.27;;;;;;;-145.18;100.00;47559.03;5068059;28;20706;-68
2021/12/12 01:44:48;;;;;;;22.43;6.23;;;;;;;-145.18;100.00;47537.53;5067979;28;20688;-68
2021/12/12 01:47:37;;;;;;;24.70;6.87;;;;;;;-145.18;100.00;47568.81;5066984;28;20772;-69
2021/12/12 01:50:10;;;;;;;24.60;7.40;;;;;;;-145.18;100.00;47562.94;5068057;28;20276;-68
2021/12/12 01:52:37;;;;;;;21.83;6.40;;;;;;;-145.18;100.00;47566.84;5067738;28;20272;-68
2021/12/12 01:55:24;;;;;;;21.03;6.53;;;;;;;-145.18;100.00;47561.00;5068110;28;20297;-69
2021/12/12 01:57:53;;;;;;;35.27;8.70;;;;;;;-145.18;100.00;47555.13;5067817;28;20266;-69
2021/12/12 02:00:35;;;;;;;25.47;6.33;;;;;;;-145.18;100.00;47537.53;5068096;28;20258;-69
2021/12/12 02:03:02;;;;;;;27.30;7.63;;;;;;;-145.18;100.00;47551.22;5053292;28;20305;-69
2021/12/12 02:05:29;;;;;;;30.03;8.60;;;;;;;-145.18;100.00;47545.34;5047776;28;20307;-68
2021/12/12 02:08:00;;;;;;;39.37;8.23;;;;;;;-145.18;100.00;47562.94;5047751;28;20686;-69
2021/12/12 02:10:32;;;;;;;39.60;8.60;;;;;;;-145.18;100.00;47547.31;5048012;28;20297;-69
2021/12/12 02:13:07;;;;;;;30.40;8.30;;;;;;;-145.18;100.00;47551.22;5047877;28;20777;-69
2021/12/12 02:15:35;;;;;;;23.33;7.63;;;;;;;-145.18;100.00;47559.03;5047524;28;20282;-68
2021/12/12 02:18:05;;;;;;;29.90;8.67;;;;;;;-145.18;100.00;47555.13;5047459;28;20840;-68
2021/12/12 02:20:41;;;;;;;32.03;8.90;;;;;;;-145.18;100.00;47543.41;5047687;28;20264;-68
2021/12/12 02:36:42;;;;;;;35.05;10.60;;;;;;;-145.18;100.00;47566.84;5047266;28;20335;-68
2021/12/12 02:39:15;;;;;;;29.23;10.03;;;;;;;-145.18;100.00;47551.22;5047389;28;20044;-68
2021/12/12 02:41:43;;;;;;;36.73;10.27;;;;;;;-145.18;100.00;47561.00;5047059;28;20278;-68
2021/12/12 02:44:08;;;;;;;33.03;11.13;;;;;;;-145.18;100.00;47562.94;5047394;28;20293;-68
2021/12/12 02:46:36;;;;;;;32.60;11.57;;;;;;;-145.18;100.00;47551.22;5046825;28;20771;-68
2021/12/12 02:49:23;;;;;;;27.83;9.43;;;;;;;-145.18;100.00;47553.16;5046974;28;20033;-68
2021/12/12 02:51:49;;;;;;;39.17;10.23;;;;;;;-145.18;100.00;47535.59;5047059;28;20286;-67
2021/12/12 02:54:15;;;;;;;36.47;13.07;;;;;;;-145.18;100.00;47559.03;5046855;28;21007;-68
2021/12/12 02:56:45;;;;;;;38.97;12.10;;;;;;;-145.18;100.00;47561.00;5046862;28;20302;-68
2021/12/12 02:59:16;;;;;;;33.57;12.77;;;;;;;-145.18;100.00;47555.13;5047222;28;20775;-68
2021/12/12 03:01:50;;;;;;;44.30;13.97;;;;;;;-145.18;100.00;47564.91;5046850;28;20765;-68
2021/12/12 03:04:16;;;;;;;31.33;13.02;;;;;;;-145.18;100.00;47549.25;5046837;28;20302;-68
2021/12/12 03:06:43;;;;;;;32.10;12.40;;;;;;;-145.18;100.00;47562.94;5046862;28;20044;-68
2021/12/12 03:09:14;;;;;;;40.03;14.40;;;;;;;-145.18;100.00;47549.25;5046727;28;20059;-68
2021/12/12 03:11:40;;;;;;;34.67;15.57;;;;;;;-145.18;100.00;47555.13;5046700;28;20300;-68
2021/12/12 03:14:07;;;;;;;35.87;13.27;;;;;;;-145.18;100.00;47562.94;5048532;28;20250;-68
2021/12/12 03:16:34;;;;;;;43.03;15.57;;;;;;;-145.18;100.00;47541.44;5050946;28;20048;-68
2021/12/12 03:18:59;;;;;;;35.43;13.37;;;;;;;-145.18;100.00;47568.81;5051374;28;20278;-67
2021/12/12 03:21:32;;;;;;;34.63;15.97;;;;;;;-145.18;100.00;47561.00;5051288;28;20280;-67
2021/12/12 03:24:07;;;;;;;37.47;16.20;;;;;;;-145.18;100.00;47547.31;5049331;28;20409;-68
2021/12/12 03:26:34;;;;;;;33.78;14.65;;;;;;;-145.18;100.00;47549.25;5050867;28;20292;-67
2021/12/12 03:29:03;;;;;;;31.57;16.67;;;;;;;-145.18;100.00;47555.13;5050395;28;20041;-68
2021/12/12 03:31:38;;;;;;;30.13;13.80;;;;;;;-145.18;100.00;47561.00;5050896;28;20263;-67
2021/12/12 03:34:11;;;;;;;40.25;17.33;;;;;;;-145.18;100.00;47539.50;5050698;28;20275;-67
2021/12/12 03:36:37;;;;;;;32.63;17.27;;;;;;;-145.18;100.00;47561.00;5050423;28;20033;-68
2021/12/12 03:39:10;;;;;;;34.80;16.17;;;;;;;-145.18;100.00;47541.44;5050515;28;21767;-67
2021/12/12 03:41:36;;;;;;;35.27;19.37;;;;;;;-145.18;100.00;47553.16;5050624;28;20278;-68
2021/12/12 03:44:07;;;;;;;31.03;16.53;;;;;;;-145.18;100.00;47541.44;5050581;28;20337;-67
2021/12/12 03:46:34;;;;;;;35.30;17.80;;;;;;;-145.18;100.00;47537.53;5050313;28;20374;-68
2021/12/12 03:49:00;;;;;;;36.47;18.67;;;;;;;-145.18;100.00;47541.44;5050213;28;20274;-68
2021/12/12 03:51:28;;;;;;;31.00;15.97;;;;;;;-145.18;100.00;47547.31;5050568;28;20701;-68
2021/12/12 03:53:55;;;;;;;34.23;18.20;;;;;;;-145.18;100.00;47543.41;5050102;28;20041;-68
2021/12/12 03:56:22;;;;;;;41.00;17.90;;;;;;;-145.18;100.00;47541.44;5048643;28;20697;-68
2021/12/12 03:58:49;;;;;;;32.43;17.20;;;;;;;-145.18;100.00;47539.50;5049936;28;20266;-68
2021/12/12 04:01:20;;;;;;;37.30;17.67;;;;;;;-145.18;100.00;47541.44;5050911;28;20261;-68
2021/12/12 04:03:48;;;;;;;31.10;18.93;;;;;;;-145.18;100.00;47555.13;5049939;28;20262;-68
2021/12/12 04:06:17;;;;;;;29.77;16.67;;;;;;;-145.18;100.00;47547.31;5049961;28;20615;-68
2021/12/12 04:08:47;;;;;;;33.60;19.77;;;;;;;-145.18;100.00;47545.34;5050037;28;20266;-68
2021/12/12 04:11:17;;;;;;;42.17;19.07;;;;;;;-145.18;100.00;47533.63;5050297;28;20383;-68
2021/12/12 04:13:46;;;;;;;33.03;16.27;;;;;;;-145.18;100.00;47543.41;5049850;28;20332;-67
2021/12/12 04:16:13;;;;;;;35.20;19.43;;;;;;;-145.18;100.00;47543.41;5049777;28;20289;-68
2021/12/12 04:18:38;;;;;;;32.13;18.63;;;;;;;-145.18;100.00;47539.50;5049665;28;20274;-68
2021/12/12 04:21:04;;;;;;;41.73;19.83;;;;;;;-145.18;100.00;47543.41;5049939;28;20336;-68
2021/12/12 04:23:30;;;;;;;37.67;20.07;;;;;;;-145.18;100.00;47541.44;5049816;28;20056;-68
2021/12/12 04:26:20;;;;;;;34.93;19.73;;;;;;;-145.18;100.00;47545.34;5049723;28;20052;-68
2021/12/12 04:28:56;;;;;;;36.40;21.40;;;;;;;-145.18;100.00;47531.69;5049617;28;20292;-68
2021/12/12 04:31:21;;;;;;;34.50;19.23;;;;;;;-145.18;100.00;47537.53;5050011;28;20345;-68
2021/12/12 04:33:47;;;;;;;32.17;19.83;;;;;;;-145.18;100.00;47521.91;5049565;28;20501;-68
2021/12/12 04:36:12;;;;;;;33.73;21.43;;;;;;;-145.18;100.00;47527.78;5049424;28;20040;-68
2021/12/12 04:38:37;;;;;;;36.40;18.27;;;;;;;-145.18;100.00;47533.63;5049357;28;20827;-68
2021/12/12 04:41:03;;;;;;;37.67;20.13;;;;;;;-145.18;100.00;47527.78;5049472;28;20516;-69
2021/12/12 04:43:28;;;;;;;32.23;17.40;;;;;;;-145.18;100.00;47531.69;5050092;28;20036;-68
2021/12/12 04:46:03;;;;;;;36.63;21.60;;;;;;;-145.18;100.00;47519.97;5049343;28;20120;-68
2021/12/12 04:51:36;;;;;;;31.60;20.73;;;;;;;-145.18;100.00;47531.69;5049693;28;20793;-68
2021/12/12 04:54:15;;;;;;;34.67;20.63;;;;;;;-145.18;100.00;47523.88;5049296;28;20604;-68
2021/12/12 04:56:55;;;;;;;33.53;18.83;;;;;;;-145.18;100.00;47510.19;5048973;28;20258;-68
2021/12/12 04:59:56;;;;;;;32.73;20.00;;;;;;;-145.18;100.00;47523.88;5049534;28;20265;-68
2021/12/12 05:02:28;;;;;;;32.33;19.07;;;;;;;-145.18;100.00;47531.69;5043837;28;20346;-68
2021/12/12 05:05:12;;;;;;;31.60;20.47;;;;;;;-145.18;100.00;47521.91;5048852;28;20336;-68
2021/12/12 05:07:49;;;;;;;32.70;21.50;;;;;;;-145.18;100.00;47529.72;5048844;28;20274;-68
2021/12/12 05:10:48;;;;;;;35.13;21.03;;;;;;;-145.18;100.00;47516.06;5049350;28;20278;-68
2021/12/12 05:13:25;;;;;;;34.90;20.73;;;;;;;-145.18;100.00;47533.63;5044663;28;20272;-68
2021/12/12 05:15:54;;;;;;;36.50;20.53;;;;;;;-145.18;100.00;47531.69;5048700;28;20770;-68
2021/12/12 05:18:28;;;;;;;33.07;20.00;;;;;;;-145.18;100.00;47506.28;5048879;28;20308;-68
2021/12/12 05:20:59;;;;;;;35.27;20.93;;;;;;;-145.18;100.00;47518.00;5048690;28;20258;-68
2021/12/12 05:23:28;;;;;;;36.33;21.30;;;;;;;-145.18;100.00;47514.09;5048631;28;20250;-68
2021/12/12 05:26:05;;;;;;;36.83;21.63;;;;;;;-145.18;100.00;47519.97;5048332;28;20278;-68
2021/12/12 05:28:37;;;;;;;41.23;23.53;;;;;;;-145.18;100.00;47516.06;5048762;28;20278;-68
2021/12/12 05:31:06;;;;;;;40.17;23.07;;;;;;;-145.18;100.00;47543.41;5048770;28;20270;-68
2021/12/12 05:33:33;;;;;;;38.60;23.83;;;;;;;-145.18;100.00;47510.19;5048300;28;20779;-68
2021/12/12 05:35:59;;;;;;;40.73;24.43;;;;;;;-145.18;100.00;47504.31;5047805;28;20277;-69
2021/12/12 05:38:26;;;;;;;44.97;22.33;;;;;;;-145.18;100.00;47508.22;5048125;28;20262;-68
2021/12/12 05:40:53;;;;;;;49.87;25.23;;;;;;;-145.18;100.00;47512.16;5048038;28;21101;-68
2021/12/12 05:43:19;;;;;;;43.17;23.73;;;;;;;-145.18;100.00;47514.09;5048180;28;20266;-68
2021/12/12 05:45:46;;;;;;;43.77;25.37;;;;;;;-145.18;100.00;47529.72;5048138;28;20357;-68
2021/12/12 05:48:12;;;;;;;50.87;23.50;;;;;;;-145.18;100.00;47531.69;5048817;28;20274;-68
2021/12/12 05:50:40;;;;;;;51.73;27.83;;;;;;;-145.18;100.00;47512.16;5047857;28;20277;-68
2021/12/12 05:53:07;;;;;;;54.90;27.67;;;;;;;-145.18;100.00;47498.47;5046793;28;20930;-68
2021/12/12 05:55:35;;;;;;;58.93;28.23;;;;;;;-145.18;100.00;47512.16;5047936;28;20278;-68
2021/12/12 05:58:05;;;;;;;59.77;28.90;;;;;;;-145.18;100.00;47527.78;5048074;28;20285;-68
2021/12/12 06:00:41;;;;;;;47.60;25.50;;;;;;;-145.18;100.00;47527.78;5047899;28;20289;-68
2021/12/12 06:03:09;;;;;;;53.67;27.80;;;;;;;-145.18;100.00;47512.16;5047787;28;20288;-68
2021/12/12 06:05:37;;;;;;;54.67;27.70;;;;;;;-145.18;100.00;47519.97;5047633;28;20366;-68
2021/12/12 06:08:04;;;;;;;59.40;31.20;;;;;;;-145.18;100.00;47516.06;5047290;28;20303;-68
2021/12/12 06:10:32;;;;;;;48.10;25.30;;;;;;;-145.18;100.00;47510.19;5049746;28;20304;-68
2021/12/12 06:12:58;;;;;;;51.03;27.73;;;;;;;-145.18;100.00;47512.16;5046364;28;20696;-69
2021/12/12 06:15:27;;;;;;;58.67;27.13;;;;;;;-145.18;100.00;47508.22;5046852;28;20273;-69
2021/12/12 06:17:53;;;;;;;64.70;31.30;;;;;;;-145.18;100.00;47516.06;5048954;28;20270;-69
2021/12/12 06:20:19;;;;;;;65.00;32.43;;;;;;;-145.18;100.00;47490.66;5047531;28;20278;-69
2021/12/12 06:22:47;;;;;;;52.23;27.93;;;;;;;-145.18;100.00;47498.47;5050365;28;20132;-68
2021/12/12 06:25:14;;;;;;;65.13;33.00;;;;;;;-145.18;100.00;47512.16;5047641;28;20297;-68
2021/12/12 06:27:40;;;;;;;67.60;33.03;;;;;;;-145.18;100.00;47510.19;5047064;28;20359;-69
2021/12/12 06:30:12;;;;;;;57.53;28.43;;;;;;;-145.18;100.00;47508.22;5047532;28;20040;-69
2021/12/12 06:32:39;;;;;;;60.10;28.50;;;;;;;-145.18;100.00;47508.22;5046821;28;20304;-69
2021/12/12 06:35:06;;;;;;;72.63;35.97;;;;;;;-145.18;100.00;47498.47;5047161;28;20281;-68
2021/12/12 06:37:32;;;;;;;71.87;33.23;;;;;;;-145.18;100.00;47506.28;5047021;28;20357;-69
2021/12/12 06:39:59;;;;;;;76.00;32.83;;;;;;;-145.18;100.00;47506.28;5046666;28;20335;-69
2021/12/12 06:42:25;;;;;;;74.40;31.53;;;;;;;-145.18;100.00;47496.50;5046375;28;20908;-69
2021/12/12 06:44:50;;;;;;;79.93;34.83;;;;;;;-145.18;100.00;47508.22;5046907;28;20335;-68
2021/12/12 06:47:17;;;;;;;80.30;37.03;;;;;;;-145.18;100.00;47508.22;5046789;28;20053;-69
2021/12/12 06:49:43;;;;;;;65.13;28.43;;;;;;;-145.18;100.00;47504.31;5045307;28;20045;-68
2021/12/12 06:52:11;;;;;;;90.43;37.60;;;;;;;-145.18;100.00;47492.59;5047215;28;20298;-69
2021/12/12 06:54:38;;;;;;;96.20;38.63;;;;;;;-145.18;100.00;47504.31;5046891;28;20266;-69
2021/12/12 06:57:07;;;;;;;82.80;37.57;;;;;;;-145.18;100.00;47486.75;5046964;28;20325;-69
2021/12/12 06:59:35;;;;;;;87.03;36.43;;;;;;;-145.18;100.00;47512.16;5045572;28;20278;-69
2021/12/12 07:02:01;;;;;;;87.47;38.63;;;;;;;-145.18;100.00;47482.84;5045815;28;20774;-69
2021/12/12 07:04:28;;;;;;;84.97;32.77;;;;;;;-145.18;100.00;47490.66;5046523;28;20317;-69
2021/12/12 07:06:57;;;;;;;96.20;38.50;;;;;;;-145.18;100.00;47506.28;5045254;28;20049;-68
2021/12/12 07:09:25;;;;;;;81.93;31.87;;;;;;;-145.18;100.00;47496.50;5046819;28;20257;-69
2021/12/12 07:11:50;;;;;;;91.20;36.80;;;;;;;-145.18;100.00;47518.00;5045849;28;20636;-69
2021/12/12 07:14:16;;;;;;;92.03;38.20;;;;;;;-145.18;100.00;47488.69;5048782;28;20274;-69
2021/12/12 07:16:43;;;;;;;104.60;40.97;;;;;;;-145.18;100.00;47498.47;5046123;28;20053;-69
2021/12/12 07:19:09;;;;;;;103.47;41.50;;;;;;;-145.18;100.00;47504.31;5046157;28;20278;-69
2021/12/12 07:21:36;;;;;;;104.13;42.37;;;;;;;-145.18;100.00;47496.50;5047048;28;20286;-69
2021/12/12 07:24:04;;;;;;;103.80;40.30;;;;;;;-145.18;100.00;47484.78;5046081;28;20323;-69
2021/12/12 07:26:30;;;;;;;105.50;39.00;;;;;;;-145.18;100.00;47492.59;5045817;28;20301;-69
2021/12/12 07:28:58;;;;;;;113.20;43.20;;;;;;;-145.18;100.00;47488.69;5045507;28;20290;-69
2021/12/12 07:31:28;;;;;;;101.03;39.40;;;;;;;-145.18;100.00;47490.66;5043769;28;20278;-70
2021/12/12 07:33:57;;;;;;;109.77;40.47;;;;;;;-145.18;100.00;47480.88;5045465;28;21000;-69
2021/12/12 07:36:24;;;;;;;107.80;42.10;;;;;;;-145.18;100.00;47498.47;5046343;28;20276;-69
2021/12/12 07:38:56;;;;;;;107.63;41.20;;;;;;;-145.18;100.00;47476.97;5046163;28;20662;-69
2021/12/12 07:41:27;;;;;;;119.10;42.90;;;;;;;-145.18;100.00;47480.88;5046427;28;20277;-69
2021/12/12 07:43:54;;;;;;;105.40;40.53;;;;;;;-145.18;100.00;47482.84;5046043;28;20681;-69
2021/12/12 07:46:21;;;;;;;104.50;42.53;;;;;;;-145.18;100.00;47476.97;5046405;28;20294;-69
2021/12/12 07:48:49;;;;;;;102.30;37.93;;;;;;;-145.18;100.00;47475.03;5046141;28;20361;-69
2021/12/12 07:51:15;;;;;;;109.63;40.90;;;;;;;-145.18;100.00;47504.31;5045827;28;20262;-69
2021/12/12 07:53:41;;;;;;;106.57;42.10;;;;;;;-145.18;100.00;47467.22;5046840;28;20282;-69
2021/12/12 07:56:07;;;;;;;116.10;42.80;;;;;;;-145.18;100.00;47498.47;5050380;28;20281;-69
2021/12/12 07:58:34;;;;;;;112.03;43.70;;;;;;;-145.18;100.00;47484.78;5066499;28;20261;-69
2021/12/12 08:01:00;;;;;;;110.80;40.77;;;;;;;-145.18;100.00;47484.78;5068824;28;20135;-69
2021/12/12 08:03:30;;;;;;;117.03;42.13;;;;;;;-145.18;100.00;47469.16;5069996;28;20364;-69
2021/12/12 08:05:56;;;;;;;120.33;45.47;;;;;;;-145.18;100.00;47473.06;5069663;28;20052;-69
2021/12/12 08:08:24;;;;;;;112.27;42.23;;;;;;;-145.18;100.00;47478.94;5069938;28;20390;-69
2021/12/12 08:10:51;;;;;;;107.00;42.40;;;;;;;-145.18;100.00;47484.78;5069330;28;20691;-69
2021/12/12 08:13:17;;;;;;;120.23;44.63;;;;;;;-145.18;100.00;47482.84;5070496;28;20274;-69
2021/12/12 08:15:43;;;;;;;107.90;43.70;;;;;;;-145.18;100.00;47469.16;5069807;28;20291;-69
2021/12/12 08:18:11;;;;;;;108.00;41.13;;;;;;;-145.18;100.00;47471.13;5068353;28;20770;-71
2021/12/12 08:20:38;;;;;;;117.93;44.07;;;;;;;-145.18;100.00;47482.84;5054407;28;20049;-69
2021/12/12 08:23:07;;;;;;;118.07;43.50;;;;;;;-145.18;100.00;47476.97;5049627;28;20901;-69
2021/12/12 08:25:34;;;;;;;104.30;41.43;;;;;;;-145.18;100.00;47465.25;5049567;28;20281;-69
2021/12/12 08:28:01;;;;;;;97.80;43.93;;;;;;;-145.18;100.00;47488.69;5049615;28;20262;-69
2021/12/12 08:30:27;;;;;;;121.10;45.23;;;;;;;-145.18;100.00;47490.66;5048953;28;20267;-69
2021/12/12 08:32:52;;;;;;;108.07;40.37;;;;;;;-145.18;100.00;47473.06;5049158;28;20281;-69
2021/12/12 08:35:20;;;;;;;117.07;43.37;;;;;;;-145.18;100.00;47465.25;5048829;28;20272;-69
2021/12/12 08:37:47;;;;;;;115.17;42.60;;;;;;;-145.18;100.00;47473.06;5066025;28;20405;-69
2021/12/12 08:40:18;;;;;;;112.23;42.93;;;;;;;-145.18;100.00;47463.31;5065077;28;20292;-69
2021/12/12 08:42:45;;;;;;;107.03;42.43;;;;;;;-145.18;100.00;47512.16;5047926;28;20294;-69
2021/12/12 08:45:14;;;;;;;106.60;43.00;;;;;;;-145.18;100.00;47469.16;5048751;28;20274;-69
2021/12/12 08:47:40;;;;;;;108.93;42.13;;;;;;;-145.18;100.00;47486.75;5048059;28;20282;-69
2021/12/12 08:50:08;;;;;;;105.67;40.03;;;;;;;-145.18;100.00;47469.16;5048235;28;20783;-69
2021/12/12 08:52:39;;;;;;;102.17;39.00;;;;;;;-145.18;100.00;47486.75;5047419;28;20521;-69
2021/12/12 08:55:18;;;;;;;107.07;40.53;;;;;;;-145.18;100.00;47475.03;5047246;28;20362;-69
2021/12/12 08:57:58;;;;;;;94.47;38.73;;;;;;;-145.18;100.00;47480.88;5048093;28;20278;-69
2021/12/12 09:00:27;;;;;;;99.07;39.83;;;;;;;-145.18;100.00;47490.66;5048345;28;20278;-69
2021/12/12 09:02:53;;;;;;;113.17;41.00;;;;;;;-145.18;100.00;47455.47;5048034;28;20278;-69
2021/12/12 09:05:28;;;;;;;121.00;42.47;;;;;;;-145.18;100.00;47469.16;5051217;28;20290;-69
2021/12/12 09:08:00;;;;;;;106.57;39.63;;;;;;;-145.18;100.00;47461.34;5066182;28;20288;-69
2021/12/12 09:10:53;;;;;;;104.20;36.83;;;;;;;-145.18;100.00;47469.16;5068069;28;20320;-69
2021/12/12 09:13:26;;;;;;;97.80;39.33;;;;;;;-145.18;100.00;47486.75;5048703;28;20254;-69
2021/12/12 09:16:24;;;;;;;100.50;39.27;;;;;;;-145.18;100.00;47471.13;5061666;28;20797;-69
2021/12/12 09:18:58;;;;;;;101.33;38.47;;;;;;;-145.18;100.00;47467.22;5048325;28;20274;-69
2021/12/12 09:21:29;;;;;;;96.73;36.70;;;;;;;-145.18;100.00;47453.53;5046561;28;20278;-69
2021/12/12 09:24:26;;;;;;;95.70;37.27;;;;;;;-145.18;100.00;47465.25;5052730;28;20270;-69
2021/12/12 09:26:57;;;;;;;89.57;36.72;;;;;;;-145.18;100.00;47480.88;5054079;28;20270;-69
2021/12/12 09:29:32;;;;;;;85.67;36.03;;;;;;;-145.18;100.00;47476.97;5054597;28;20146;-68
2021/12/12 09:32:08;;;;;;;88.32;37.63;;;;;;;-145.18;100.00;47463.31;5056785;28;20655;-69
2021/12/12 09:34:59;;;;;;;97.50;37.43;;;;;;;-145.18;100.00;47482.84;5058050;28;20162;-69
2021/12/12 09:37:39;;;;;;;93.83;36.10;;;;;;;-145.18;100.00;47453.53;5051039;28;20274;-69
2021/12/12 09:40:15;;;;;;;97.80;37.33;;;;;;;-145.18;100.00;47455.47;5050881;28;20273;-69
2021/12/12 09:43:10;;;;;;;85.53;37.35;;;;;;;-145.18;100.00;47447.66;5047836;28;20861;-69
2021/12/12 09:46:19;;;;;;;88.83;37.87;;;;;;;-145.18;100.00;47453.53;5049648;28;20041;-69
2021/12/12 09:52:26;;;;;;;72.17;32.53;;;;;;;-145.18;100.00;47484.78;5048133;28;20272;-69
2021/12/12 09:54:52;;;;;;;74.10;31.20;;;;;;;-145.18;100.00;47469.16;5048925;28;20328;-69
2021/12/12 09:57:33;;;;;;;85.77;37.90;;;;;;;-145.18;100.00;47459.41;5046924;28;20274;-69
2021/12/12 10:00:07;;;;;;;80.57;33.53;;;;;;;-145.18;100.00;47465.25;5046664;28;20091;-68
2021/12/12 10:02:53;;;;;;;77.00;34.47;;;;;;;-145.18;100.00;47478.94;5052556;28;20369;-69
2021/12/12 10:05:52;;;;;;;75.10;31.80;;;;;;;-145.18;100.00;47463.31;5055668;28;20282;-69
2021/12/12 10:08:42;;;;;;;65.93;30.83;;;;;;;-145.18;100.00;47445.72;5058916;28;20758;-68
2021/12/12 10:11:39;;;;;;;67.00;32.33;;;;;;;-145.18;100.00;47467.22;5055309;28;20272;-68
2021/12/12 10:14:23;;;;;;;72.67;32.77;;;;;;;-145.18;100.00;47465.25;5052045;28;20258;-68
2021/12/12 10:17:08;;;;;;;65.70;31.87;;;;;;;-145.18;100.00;47463.31;5051579;28;20283;-68
2021/12/12 10:19:42;;;;;;;68.60;30.97;;;;;;;-145.18;100.00;47459.41;5050352;28;20353;-68
2021/12/12 10:22:44;;;;;;;69.80;32.10;;;;;;;-145.18;100.00;47445.72;5051479;28;20285;-68
2021/12/12 10:25:14;;;;;;;59.23;28.03;;;;;;;-145.18;100.00;47451.56;5051689;28;20278;-68
2021/12/12 10:28:01;;;;;;;73.00;32.10;;;;;;;-145.18;100.00;47443.75;5053548;28;20340;-69
2021/12/12 10:30:54;;;;;;;71.60;30.43;;;;;;;-145.18;100.00;47467.22;5049752;28;20337;-68
2021/12/12 10:33:25;;;;;;;71.57;28.27;;;;;;;-145.18;100.00;47441.81;5049747;28;20266;-69
2021/12/12 10:36:00;;;;;;;70.97;33.37;;;;;;;-145.18;100.00;47451.56;5052487;28;20273;-68
2021/12/12 10:38:53;;;;;;;70.15;30.77;;;;;;;-145.18;100.00;47449.63;5051117;28;20277;-68
2021/12/12 10:41:24;;;;;;;71.90;32.03;;;;;;;-145.18;100.00;47476.97;5051380;28;20037;-69
2021/12/12 10:43:56;;;;;;;69.20;30.37;;;;;;;-145.18;100.00;47439.84;5048514;28;20778;-68
2021/12/12 10:46:32;;;;;;;71.13;31.47;;;;;;;-145.18;100.00;47437.91;5046427;28;20277;-68
2021/12/12 10:49:09;;;;;;;74.63;32.37;;;;;;;-145.18;100.00;47453.53;5045576;28;20766;-68
2021/12/12 10:51:43;;;;;;;64.17;31.30;;;;;;;-145.18;100.00;47451.56;5051601;28;20766;-68
2021/12/12 10:54:15;;;;;;;61.40;27.63;;;;;;;-145.18;100.00;47451.56;5048336;28;20274;-68
2021/12/12 10:56:48;;;;;;;61.77;27.17;;;;;;;-145.18;100.00;47443.75;5046173;28;20278;-68
2021/12/12 10:59:57;;;;;;;60.70;28.73;;;;;;;-145.18;100.00;47435.94;5052400;28;20322;-69
2021/12/12 11:02:30;;;;;;;64.37;26.73;;;;;;;-145.18;100.00;47453.53;5063748;28;20265;-69
2021/12/12 11:05:05;;;;;;;56.07;27.97;;;;;;;-145.18;100.00;47453.53;5065150;28;20297;-69
2021/12/12 11:07:37;;;;;;;60.72;28.67;;;;;;;-145.18;100.00;47434.00;5066740;28;20760;-69
2021/12/12 11:10:20;;;;;;;63.37;28.97;;;;;;;-145.18;100.00;47459.41;5065730;28;20040;-68
2021/12/12 11:12:56;;;;;;;63.60;28.73;;;;;;;-145.18;100.00;47453.53;5045545;28;20359;-68
2021/12/12 11:15:22;;;;;;;57.47;24.00;;;;;;;-145.18;100.00;47437.91;5046595;28;20266;-68
2021/12/12 11:17:55;;;;;;;64.27;29.43;;;;;;;-145.18;100.00;47449.63;5045913;28;20370;-68
2021/12/12 11:20:28;;;;;;;70.47;31.03;;;;;;;-145.18;100.00;47457.44;5046024;28;20095;-68
2021/12/12 11:23:03;;;;;;;63.77;27.77;;;;;;;-145.18;100.00;47455.47;5046028;28;20274;-68
2021/12/12 11:25:33;;;;;;;60.70;28.42;;;;;;;-145.18;100.00;47453.53;5046183;28;20782;-68
2021/12/12 11:28:07;;;;;;;47.50;19.13;;;;;;;-145.18;100.00;47457.44;5065376;28;20045;-69
2021/12/12 11:30:39;;;;;;;61.30;27.70;;;;;;;-145.18;100.00;47447.66;5064425;28;20642;-68
2021/12/12 11:33:11;;;;;;;62.00;29.23;;;;;;;-145.18;100.00;47434.00;5046260;28;20681;-68
2021/12/12 11:35:39;;;;;;;59.10;25.87;;;;;;;-145.18;100.00;47455.47;5048242;28;20285;-68